sensor_id;sensor_type;location;lat;lon;timestamp;pressure;altitude;pressure_sealevel;temperature;humidity
26937;BME280;14495;48.116;11.676;2022-07-29T00:02:28;95516.78;;;20.05;100.00
26937;BME280;14495;48.116;11.676;2022-07-29T00:04:53;95519.72;;;20.02;100.00
26937;BME280;14495;48.116;11.676;2022-07-29T00:07:18;95508.59;;;19.99;100.00
26937;BME280;14495;48.116;11.676;2022-07-29T00:09:44;95503.47;;;19.97;100.00
26937;BME280;14495;48.116;11.676;2022-07-29T00:12:09;95504.69;;;20.11;100.00
26937;BME280;14495;48.116;11.676;2022-07-29T00:14:35;95510.00;;;20.11;100.00
26937;BME280;14495;48.116;11.676;2022-07-29T00:17:00;95510.50;;;20.06;100.00
26937;BME280;14495;48.116;11.676;2022-07-29T00:19:25;95507.88;;;20.15;100.00
26937;BME280;14495;48.116;11.676;2022-07-29T00:21:51;95510.78;;;20.03;100.00
26937;BME280;14495;48.116;11.676;2022-07-29T00:24:16;95503.47;;;19.97;100.00
26937;BME280;14495;48.116;11.676;2022-07-29T00:26:41;95507.31;;;19.77;100.00
26937;BME280;14495;48.116;11.676;2022-07-29T00:29:06;95502.09;;;19.93;100.00
26937;BME280;14495;48.116;11.676;2022-07-29T00:31:32;95508.03;;;19.87;100.00
26937;BME280;14495;48.116;11.676;2022-07-29T00:33:57;95507.16;;;20.04;100.00
26937;BME280;14495;48.116;11.676;2022-07-29T00:36:23;95499.00;;;19.98;100.00
26937;BME280;14495;48.116;11.676;2022-07-29T00:38:49;95499.44;;;19.93;100.00
26937;BME280;14495;48.116;11.676;2022-07-29T00:41:16;95503.63;;;19.96;100.00
26937;BME280;14495;48.116;11.676;2022-07-29T00:43:42;95503.25;;;19.91;100.00
26937;BME280;14495;48.116;11.676;2022-07-29T00:46:08;95494.22;;;20.01;100.00
26937;BME280;14495;48.116;11.676;2022-07-29T00:48:33;95490.88;;;19.99;100.00
26937;BME280;14495;48.116;11.676;2022-07-29T00:51:00;95485.97;;;20.13;100.00
26937;BME280;14495;48.116;11.676;2022-07-29T00:53:26;95474.63;;;20.02;100.00
26937;BME280;14495;48.116;11.676;2022-07-29T00:55:53;95476.03;;;20.15;100.00
26937;BME280;14495;48.116;11.676;2022-07-29T00:58:19;95464.03;;;20.02;100.00
26937;BME280;14495;48.116;11.676;2022-07-29T01:00:44;95467.06;;;20.07;100.00
26937;BME280;14495;48.116;11.676;2022-07-29T01:03:10;95460.09;;;20.06;100.00
26937;BME280;14495;48.116;11.676;2022-07-29T01:05:35;95461.88;;;19.98;100.00
26937;BME280;14495;48.116;11.676;2022-07-29T01:08:01;95460.72;;;20.00;100.00
26937;BME280;14495;48.116;11.676;2022-07-29T01:10:27;95460.72;;;20.00;100.00
26937;BME280;14495;48.116;11.676;2022-07-29T01:12:55;95461.75;;;20.07;100.00
26937;BME280;14495;48.116;11.676;2022-07-29T01:15:21;95453.13;;;20.05;100.00
26937;BME280;14495;48.116;11.676;2022-07-29T01:18:01;95459.47;;;20.13;100.00
26937;BME280;14495;48.116;11.676;2022-07-29T01:23:46;95464.91;;;20.11;100.00
26937;BME280;14495;48.116;11.676;2022-07-29T01:26:31;95463.44;;;20.08;100.00
26937;BME280;14495;48.116;11.676;2022-07-29T01:31:54;95457.19;;;20.26;100.00
26937;BME280;14495;48.116;11.676;2022-07-29T01:34:29;95465.50;;;20.23;100.00
26937;BME280;14495;48.116;11.676;2022-07-29T01:37:29;95459.84;;;20.26;100.00
26937;BME280;14495;48.116;11.676;2022-07-29T01:39:58;95458.81;;;20.19;100.00
26937;BME280;14495;48.116;11.676;2022-07-29T01:45:10;95446.03;;;19.80;100.00
26937;BME280;14495;48.116;11.676;2022-07-29T01:47:41;95451.13;;;19.73;100.00
26937;BME280;14495;48.116;11.676;2022-07-29T01:50:16;95446.13;;;19.96;100.00
26937;BME280;14495;48.116;11.676;2022-07-29T01:52:56;95450.06;;;19.92;100.00
26937;BME280;14495;48.116;11.676;2022-07-29T01:55:26;95456.88;;;19.95;100.00
26937;BME280;14495;48.116;11.676;2022-07-29T01:57:52;95452.41;;;19.95;100.00
26937;BME280;14495;48.116;11.676;2022-07-29T02:00:18;95455.75;;;19.97;100.00
26937;BME280;14495;48.116;11.676;2022-07-29T02:02:45;95449.91;;;19.94;100.00
26937;BME280;14495;48.116;11.676;2022-07-29T02:05:14;95447.84;;;19.79;100.00
26937;BME280;14495;48.116;11.676;2022-07-29T02:07:42;95444.53;;;19.77;100.00
26937;BME280;14495;48.116;11.676;2022-07-29T02:10:09;95437.41;;;19.78;100.00
26937;BME280;14495;48.116;11.676;2022-07-29T02:12:35;95438.41;;;19.77;100.00
26937;BME280;14495;48.116;11.676;2022-07-29T02:15:03;95425.72;;;19.70;100.00
26937;BME280;14495;48.116;11.676;2022-07-29T02:17:37;95433.41;;;19.74;100.00
26937;BME280;14495;48.116;11.676;2022-07-29T02:20:04;95434.53;;;19.71;100.00
26937;BME280;14495;48.116;11.676;2022-07-29T02:22:33;95428.63;;;19.59;100.00
26937;BME280;14495;48.116;11.676;2022-07-29T02:25:00;95426.63;;;19.53;100.00
26937;BME280;14495;48.116;11.676;2022-07-29T02:27:26;95417.38;;;19.57;100.00
26937;BME280;14495;48.116;11.676;2022-07-29T02:29:54;95425.56;;;19.46;100.00
26937;BME280;14495;48.116;11.676;2022-07-29T02:32:22;95415.28;;;19.43;100.00
26937;BME280;14495;48.116;11.676;2022-07-29T02:34:50;95411.97;;;19.41;100.00
26937;BME280;14495;48.116;11.676;2022-07-29T02:37:16;95413.72;;;19.32;100.00
26937;BME280;14495;48.116;11.676;2022-07-29T02:39:44;95412.44;;;19.36;100.00
26937;BME280;14495;48.116;11.676;2022-07-29T02:42:13;95410.31;;;19.40;100.00
26937;BME280;14495;48.116;11.676;2022-07-29T02:44:39;95404.69;;;19.43;100.00
26937;BME280;14495;48.116;11.676;2022-07-29T02:47:26;95408.00;;;19.45;100.00
26937;BME280;14495;48.116;11.676;2022-07-29T02:50:21;95408.38;;;19.50;100.00
26937;BME280;14495;48.116;11.676;2022-07-29T02:52:57;95406.66;;;19.41;100.00
26937;BME280;14495;48.116;11.676;2022-07-29T02:55:46;95406.25;;;19.27;100.00
26937;BME280;14495;48.116;11.676;2022-07-29T02:58:21;95400.31;;;19.34;100.00
26937;BME280;14495;48.116;11.676;2022-07-29T03:00:52;95403.63;;;19.36;100.00
26937;BME280;14495;48.116;11.676;2022-07-29T03:03:18;95393.66;;;19.29;100.00
26937;BME280;14495;48.116;11.676;2022-07-29T03:05:44;95393.97;;;19.26;100.00
26937;BME280;14495;48.116;11.676;2022-07-29T03:08:11;95400.13;;;19.27;100.00
26937;BME280;14495;48.116;11.676;2022-07-29T03:10:39;95403.88;;;19.24;100.00
26937;BME280;14495;48.116;11.676;2022-07-29T03:13:06;95405.19;;;19.20;100.00
26937;BME280;14495;48.116;11.676;2022-07-29T03:15:33;95408.38;;;19.06;100.00
26937;BME280;14495;48.116;11.676;2022-07-29T03:17:59;95407.31;;;18.99;100.00
26937;BME280;14495;48.116;11.676;2022-07-29T03:20:25;95408.72;;;18.85;100.00
26937;BME280;14495;48.116;11.676;2022-07-29T03:22:51;95408.28;;;18.80;100.00
26937;BME280;14495;48.116;11.676;2022-07-29T03:25:18;95407.22;;;18.82;100.00
26937;BME280;14495;48.116;11.676;2022-07-29T03:27:44;95412.09;;;18.77;100.00
26937;BME280;14495;48.116;11.676;2022-07-29T03:30:11;95399.53;;;18.61;100.00
26937;BME280;14495;48.116;11.676;2022-07-29T03:32:37;95410.19;;;18.51;100.00
26937;BME280;14495;48.116;11.676;2022-07-29T03:35:04;95415.19;;;18.54;100.00
26937;BME280;14495;48.116;11.676;2022-07-29T03:37:29;95400.41;;;18.52;100.00
26937;BME280;14495;48.116;11.676;2022-07-29T03:39:57;95404.88;;;18.51;100.00
26937;BME280;14495;48.116;11.676;2022-07-29T03:42:25;95407.06;;;18.38;100.00
26937;BME280;14495;48.116;11.676;2022-07-29T03:44:52;95409.41;;;18.41;100.00
26937;BME280;14495;48.116;11.676;2022-07-29T03:47:22;95408.16;;;18.18;100.00
26937;BME280;14495;48.116;11.676;2022-07-29T03:49:50;95406.50;;;18.16;100.00
26937;BME280;14495;48.116;11.676;2022-07-29T03:52:17;95411.25;;;18.13;100.00
26937;BME280;14495;48.116;11.676;2022-07-29T03:54:43;95410.97;;;18.16;100.00
26937;BME280;14495;48.116;11.676;2022-07-29T03:57:10;95414.28;;;18.18;100.00
26937;BME280;14495;48.116;11.676;2022-07-29T03:59:36;95407.91;;;18.11;100.00
26937;BME280;14495;48.116;11.676;2022-07-29T04:02:04;95415.59;;;18.04;100.00
26937;BME280;14495;48.116;11.676;2022-07-29T04:04:33;95416.03;;;18.00;100.00
26937;BME280;14495;48.116;11.676;2022-07-29T04:06:59;95410.81;;;17.90;100.00
26937;BME280;14495;48.116;11.676;2022-07-29T04:09:25;95408.25;;;17.98;100.00
26937;BME280;14495;48.116;11.676;2022-07-29T04:11:50;95419.41;;;17.92;100.00
26937;BME280;14495;48.116;11.676;2022-07-29T04:14:16;95410.50;;;17.83;100.00
26937;BME280;14495;48.116;11.676;2022-07-29T04:16:41;95412.91;;;17.86;100.00
26937;BME280;14495;48.116;11.676;2022-07-29T04:19:06;95417.19;;;17.87;100.00
26937;BME280;14495;48.116;11.676;2022-07-29T04:21:40;95425.53;;;17.92;100.00
26937;BME280;14495;48.116;11.676;2022-07-29T04:24:06;95428.53;;;18.07;100.00
26937;BME280;14495;48.116;11.676;2022-07-29T04:26:32;95423.38;;;18.06;100.00
26937;BME280;14495;48.116;11.676;2022-07-29T04:28:57;95422.69;;;18.04;100.00
26937;BME280;14495;48.116;11.676;2022-07-29T04:31:23;95426.84;;;18.06;100.00
26937;BME280;14495;48.116;11.676;2022-07-29T04:33:48;95424.59;;;18.11;100.00
26937;BME280;14495;48.116;11.676;2022-07-29T04:36:13;95424.59;;;18.11;100.00
26937;BME280;14495;48.116;11.676;2022-07-29T04:38:39;95427.03;;;18.23;100.00
26937;BME280;14495;48.116;11.676;2022-07-29T04:41:04;95424.50;;;18.31;100.00
26937;BME280;14495;48.116;11.676;2022-07-29T04:43:31;95427.56;;;18.36;100.00
26937;BME280;14495;48.116;11.676;2022-07-29T04:45:57;95439.34;;;18.42;100.00
26937;BME280;14495;48.116;11.676;2022-07-29T04:48:22;95436.72;;;18.60;100.00
26937;BME280;14495;48.116;11.676;2022-07-29T04:50:47;95441.06;;;18.79;100.00
26937;BME280;14495;48.116;11.676;2022-07-29T04:53:12;95443.03;;;18.95;100.00
26937;BME280;14495;48.116;11.676;2022-07-29T04:55:38;95443.88;;;19.13;100.00
26937;BME280;14495;48.116;11.676;2022-07-29T04:58:03;95444.16;;;19.28;100.00
26937;BME280;14495;48.116;11.676;2022-07-29T05:00:28;95443.63;;;19.50;100.00
26937;BME280;14495;48.116;11.676;2022-07-29T05:02:54;95447.50;;;19.56;100.00
26937;BME280;14495;48.116;11.676;2022-07-29T05:05:19;95449.56;;;19.70;100.00
26937;BME280;14495;48.116;11.676;2022-07-29T05:07:44;95453.31;;;19.78;100.00
26937;BME280;14495;48.116;11.676;2022-07-29T05:10:10;95453.44;;;20.02;100.00
26937;BME280;14495;48.116;11.676;2022-07-29T05:12:36;95454.81;;;20.15;100.00
26937;BME280;14495;48.116;11.676;2022-07-29T05:15:02;95451.94;;;20.34;100.00
26937;BME280;14495;48.116;11.676;2022-07-29T05:17:28;95456.28;;;20.43;100.00
26937;BME280;14495;48.116;11.676;2022-07-29T05:19:53;95459.91;;;20.42;100.00
26937;BME280;14495;48.116;11.676;2022-07-29T05:22:19;95454.66;;;20.59;100.00
26937;BME280;14495;48.116;11.676;2022-07-29T05:24:44;95455.13;;;20.46;100.00
26937;BME280;14495;48.116;11.676;2022-07-29T05:27:10;95457.25;;;20.34;100.00
26937;BME280;14495;48.116;11.676;2022-07-29T05:29:35;95466.47;;;20.30;100.00
26937;BME280;14495;48.116;11.676;2022-07-29T05:32:00;95462.22;;;20.37;100.00
26937;BME280;14495;48.116;11.676;2022-07-29T05:34:26;95466.47;;;20.30;100.00
26937;BME280;14495;48.116;11.676;2022-07-29T05:36:52;95469.25;;;20.55;100.00
26937;BME280;14495;48.116;11.676;2022-07-29T05:39:17;95468.84;;;20.41;100.00
26937;BME280;14495;48.116;11.676;2022-07-29T05:41:43;95465.41;;;20.49;100.00
26937;BME280;14495;48.116;11.676;2022-07-29T05:44:08;95475.69;;;20.52;100.00
26937;BME280;14495;48.116;11.676;2022-07-29T05:46:33;95480.09;;;20.27;100.00
26937;BME280;14495;48.116;11.676;2022-07-29T05:48:58;95483.06;;;20.24;100.00
26937;BME280;14495;48.116;11.676;2022-07-29T05:51:24;95485.13;;;20.38;100.00
26937;BME280;14495;48.116;11.676;2022-07-29T05:53:49;95487.47;;;20.50;100.00
26937;BME280;14495;48.116;11.676;2022-07-29T05:56:14;95482.69;;;20.53;100.00
26937;BME280;14495;48.116;11.676;2022-07-29T05:58:40;95480.84;;;20.54;100.00
26937;BME280;14495;48.116;11.676;2022-07-29T06:01:06;95490.88;;;20.68;100.00
26937;BME280;14495;48.116;11.676;2022-07-29T06:03:31;95483.59;;;20.70;100.00
26937;BME280;14495;48.116;11.676;2022-07-29T06:05:56;95491.59;;;20.87;100.00
26937;BME280;14495;48.116;11.676;2022-07-29T06:08:22;95489.41;;;20.74;100.00
26937;BME280;14495;48.116;11.676;2022-07-29T06:10:47;95493.59;;;20.84;100.00
26937;BME280;14495;48.116;11.676;2022-07-29T06:13:13;95487.63;;;20.91;100.00
26937;BME280;14495;48.116;11.676;2022-07-29T06:15:41;95486.13;;;20.96;100.00
26937;BME280;14495;48.116;11.676;2022-07-29T06:18:06;95487.94;;;20.88;100.00
26937;BME280;14495;48.116;11.676;2022-07-29T06:20:34;95488.59;;;20.81;100.00
26937;BME280;14495;48.116;11.676;2022-07-29T06:22:59;95482.03;;;21.35;100.00
26937;BME280;14495;48.116;11.676;2022-07-29T06:25:25;95478.03;;;21.22;100.00
26937;BME280;14495;48.116;11.676;2022-07-29T06:27:51;95484.53;;;21.36;100.00
26937;BME280;14495;48.116;11.676;2022-07-29T06:30:17;95476.91;;;21.50;100.00
26937;BME280;14495;48.116;11.676;2022-07-29T06:32:42;95481.25;;;21.51;100.00
26937;BME280;14495;48.116;11.676;2022-07-29T06:35:08;95484.84;;;21.33;100.00
26937;BME280;14495;48.116;11.676;2022-07-29T06:37:33;95480.41;;;21.58;100.00
26937;BME280;14495;48.116;11.676;2022-07-29T06:40:00;95485.00;;;21.89;100.00
26937;BME280;14495;48.116;11.676;2022-07-29T06:42:44;95483.69;;;21.85;100.00
26937;BME280;14495;48.116;11.676;2022-07-29T06:45:11;95484.66;;;21.92;100.00
26937;BME280;14495;48.116;11.676;2022-07-29T06:47:36;95488.69;;;21.88;100.00
26937;BME280;14495;48.116;11.676;2022-07-29T06:50:02;95485.34;;;21.86;100.00
26937;BME280;14495;48.116;11.676;2022-07-29T06:52:28;95490.66;;;22.03;100.00
26937;BME280;14495;48.116;11.676;2022-07-29T06:54:53;95485.31;;;22.03;100.00
26937;BME280;14495;48.116;11.676;2022-07-29T06:57:20;95491.25;;;22.29;100.00
26937;BME280;14495;48.116;11.676;2022-07-29T06:59:45;95493.88;;;22.46;100.00
26937;BME280;14495;48.116;11.676;2022-07-29T07:02:10;95490.16;;;22.55;99.58
26937;BME280;14495;48.116;11.676;2022-07-29T07:04:36;95492.59;;;22.25;100.00
26937;BME280;14495;48.116;11.676;2022-07-29T07:07:01;95493.44;;;22.65;94.96
26937;BME280;14495;48.116;11.676;2022-07-29T07:09:26;95492.22;;;22.76;95.29
26937;BME280;14495;48.116;11.676;2022-07-29T07:11:52;95497.56;;;22.76;93.37
26937;BME280;14495;48.116;11.676;2022-07-29T07:14:17;95495.28;;;22.96;91.47
26937;BME280;14495;48.116;11.676;2022-07-29T07:16:42;95494.72;;;23.32;87.63
26937;BME280;14495;48.116;11.676;2022-07-29T07:19:08;95500.13;;;23.24;78.49
26937;BME280;14495;48.116;11.676;2022-07-29T07:21:33;95501.53;;;23.58;76.34
26937;BME280;14495;48.116;11.676;2022-07-29T07:23:59;95503.00;;;23.45;73.80
26937;BME280;14495;48.116;11.676;2022-07-29T07:26:24;95501.56;;;23.81;74.07
26937;BME280;14495;48.116;11.676;2022-07-29T07:28:50;95499.94;;;23.71;75.75
26937;BME280;14495;48.116;11.676;2022-07-29T07:31:15;95496.41;;;23.94;73.61
26937;BME280;14495;48.116;11.676;2022-07-29T07:33:41;95495.31;;;24.03;70.47
26937;BME280;14495;48.116;11.676;2022-07-29T07:36:06;95500.00;;;23.86;68.66
26937;BME280;14495;48.116;11.676;2022-07-29T07:38:32;95495.25;;;23.73;69.28
26937;BME280;14495;48.116;11.676;2022-07-29T07:40:57;95497.00;;;24.04;68.80
26937;BME280;14495;48.116;11.676;2022-07-29T07:43:22;95491.03;;;24.17;68.42
26937;BME280;14495;48.116;11.676;2022-07-29T07:45:48;95492.84;;;24.31;69.28
26937;BME280;14495;48.116;11.676;2022-07-29T07:48:13;95498.56;;;24.43;66.81
26937;BME280;14495;48.116;11.676;2022-07-29T07:50:38;95498.38;;;24.45;65.90
26937;BME280;14495;48.116;11.676;2022-07-29T07:53:04;95487.50;;;24.17;63.46
26937;BME280;14495;48.116;11.676;2022-07-29T07:55:29;95494.25;;;24.57;63.80
26937;BME280;14495;48.116;11.676;2022-07-29T07:57:55;95492.59;;;24.41;64.05
26937;BME280;14495;48.116;11.676;2022-07-29T08:00:21;95489.81;;;24.64;65.58
26937;BME280;14495;48.116;11.676;2022-07-29T08:02:46;95490.81;;;24.63;64.02
26937;BME280;14495;48.116;11.676;2022-07-29T08:05:13;95491.13;;;25.05;61.31
26937;BME280;14495;48.116;11.676;2022-07-29T08:07:45;95499.72;;;25.22;60.29
26937;BME280;14495;48.116;11.676;2022-07-29T08:10:11;95485.00;;;25.26;58.90
26937;BME280;14495;48.116;11.676;2022-07-29T08:12:37;95495.78;;;25.18;60.13
26937;BME280;14495;48.116;11.676;2022-07-29T08:15:02;95494.28;;;25.52;60.16
26937;BME280;14495;48.116;11.676;2022-07-29T08:17:28;95498.63;;;25.53;56.64
26937;BME280;14495;48.116;11.676;2022-07-29T08:19:53;95498.38;;;25.48;56.47
26937;BME280;14495;48.116;11.676;2022-07-29T08:22:18;95498.19;;;25.27;55.70
26937;BME280;14495;48.116;11.676;2022-07-29T08:24:44;95501.25;;;25.09;56.16
26937;BME280;14495;48.116;11.676;2022-07-29T08:27:12;95502.53;;;25.14;56.51
26937;BME280;14495;48.116;11.676;2022-07-29T08:29:38;95500.09;;;24.97;56.87
26937;BME280;14495;48.116;11.676;2022-07-29T08:32:04;95498.09;;;25.21;56.65
26937;BME280;14495;48.116;11.676;2022-07-29T08:34:30;95504.88;;;25.60;55.63
26937;BME280;14495;48.116;11.676;2022-07-29T08:36:56;95504.47;;;25.63;54.82
26937;BME280;14495;48.116;11.676;2022-07-29T08:39:22;95509.31;;;25.74;54.11
26937;BME280;14495;48.116;11.676;2022-07-29T08:41:48;95495.19;;;25.59;53.98
26937;BME280;14495;48.116;11.676;2022-07-29T08:44:19;95493.50;;;25.79;54.19
26937;BME280;14495;48.116;11.676;2022-07-29T08:46:47;95502.50;;;26.21;53.37
26937;BME280;14495;48.116;11.676;2022-07-29T08:49:12;95497.88;;;26.43;52.13
26937;BME280;14495;48.116;11.676;2022-07-29T08:51:40;95497.06;;;26.43;52.45
26937;BME280;14495;48.116;11.676;2022-07-29T08:54:08;95501.25;;;26.52;51.20
26937;BME280;14495;48.116;11.676;2022-07-29T08:56:34;95495.00;;;27.28;51.70
26937;BME280;14495;48.116;11.676;2022-07-29T08:59:02;95490.81;;;27.19;50.25
26937;BME280;14495;48.116;11.676;2022-07-29T09:01:29;95499.09;;;27.31;51.36
26937;BME280;14495;48.116;11.676;2022-07-29T09:03:56;95504.91;;;27.48;50.36
26937;BME280;14495;48.116;11.676;2022-07-29T09:06:22;95506.13;;;27.38;50.36
26937;BME280;14495;48.116;11.676;2022-07-29T09:08:47;95503.25;;;26.78;50.72
26937;BME280;14495;48.116;11.676;2022-07-29T09:11:14;95503.88;;;26.87;52.24
26937;BME280;14495;48.116;11.676;2022-07-29T09:13:40;95512.50;;;26.76;51.08
26937;BME280;14495;48.116;11.676;2022-07-29T09:16:06;95513.50;;;26.68;51.02
26937;BME280;14495;48.116;11.676;2022-07-29T09:18:41;95517.50;;;27.34;51.79
26937;BME280;14495;48.116;11.676;2022-07-29T09:21:09;95507.78;;;27.46;50.44
26937;BME280;14495;48.116;11.676;2022-07-29T09:24:00;95507.03;;;27.86;50.36
26937;BME280;14495;48.116;11.676;2022-07-29T09:26:30;95513.16;;;27.46;50.13
26937;BME280;14495;48.116;11.676;2022-07-29T09:28:56;95512.34;;;27.46;50.92
26937;BME280;14495;48.116;11.676;2022-07-29T09:31:33;95503.28;;;27.47;51.00
26937;BME280;14495;48.116;11.676;2022-07-29T09:33:59;95511.53;;;27.58;50.19
26937;BME280;14495;48.116;11.676;2022-07-29T09:36:26;95499.97;;;28.31;50.08
26937;BME280;14495;48.116;11.676;2022-07-29T09:38:58;95492.00;;;28.83;48.06
26937;BME280;14495;48.116;11.676;2022-07-29T09:41:25;95492.53;;;29.44;48.02
26937;BME280;14495;48.116;11.676;2022-07-29T09:43:57;95503.09;;;29.00;46.37
26937;BME280;14495;48.116;11.676;2022-07-29T09:46:24;95496.28;;;29.43;46.06
26937;BME280;14495;48.116;11.676;2022-07-29T09:49:09;95496.97;;;28.86;45.73
26937;BME280;14495;48.116;11.676;2022-07-29T09:51:35;95487.06;;;29.25;45.92
26937;BME280;14495;48.116;11.676;2022-07-29T09:54:01;95490.81;;;29.56;48.43
26937;BME280;14495;48.116;11.676;2022-07-29T09:56:42;95484.25;;;28.42;46.89
26937;BME280;14495;48.116;11.676;2022-07-29T09:59:08;95486.97;;;28.22;47.39
26937;BME280;14495;48.116;11.676;2022-07-29T10:01:34;95483.28;;;27.69;48.29
26937;BME280;14495;48.116;11.676;2022-07-29T10:04:01;95482.75;;;27.19;50.16
26937;BME280;14495;48.116;11.676;2022-07-29T10:06:26;95488.28;;;27.11;50.41
26937;BME280;14495;48.116;11.676;2022-07-29T10:08:51;95481.72;;;27.20;51.70
26937;BME280;14495;48.116;11.676;2022-07-29T10:11:18;95485.00;;;27.09;51.83
26937;BME280;14495;48.116;11.676;2022-07-29T10:13:46;95479.59;;;26.95;52.40
26937;BME280;14495;48.116;11.676;2022-07-29T10:16:13;95477.69;;;27.51;52.26
26937;BME280;14495;48.116;11.676;2022-07-29T10:18:40;95481.81;;;27.47;52.36
26937;BME280;14495;48.116;11.676;2022-07-29T10:21:06;95480.63;;;26.94;52.90
26937;BME280;14495;48.116;11.676;2022-07-29T10:23:33;95484.16;;;27.02;53.95
26937;BME280;14495;48.116;11.676;2022-07-29T10:26:00;95481.25;;;26.55;54.88
26937;BME280;14495;48.116;11.676;2022-07-29T10:28:26;95479.41;;;26.20;55.15
26937;BME280;14495;48.116;11.676;2022-07-29T10:31:00;95489.06;;;26.15;55.76
26937;BME280;14495;48.116;11.676;2022-07-29T10:33:55;95484.22;;;25.97;56.50
26937;BME280;14495;48.116;11.676;2022-07-29T10:39:33;95480.19;;;26.49;56.30
26937;BME280;14495;48.116;11.676;2022-07-29T10:42:16;95494.28;;;26.30;56.56
26937;BME280;14495;48.116;11.676;2022-07-29T10:44:42;95486.66;;;26.27;56.12
26937;BME280;14495;48.116;11.676;2022-07-29T10:47:18;95495.56;;;26.34;56.99
26937;BME280;14495;48.116;11.676;2022-07-29T10:50:02;95489.41;;;25.83;56.62
26937;BME280;14495;48.116;11.676;2022-07-29T11:00:44;95487.59;;;26.89;55.50
26937;BME280;14495;48.116;11.676;2022-07-29T11:03:42;95479.47;;;28.50;50.60
26937;BME280;14495;48.116;11.676;2022-07-29T11:06:08;95480.53;;;29.08;49.48
26937;BME280;14495;48.116;11.676;2022-07-29T11:08:33;95487.09;;;30.33;46.37
26937;BME280;14495;48.116;11.676;2022-07-29T11:13:52;95483.75;;;31.84;43.69
26937;BME280;14495;48.116;11.676;2022-07-29T11:16:21;95481.31;;;32.77;42.59
26937;BME280;14495;48.116;11.676;2022-07-29T11:21:39;95485.97;;;33.79;39.36
26937;BME280;14495;48.116;11.676;2022-07-29T11:24:25;95483.53;;;33.95;39.23
26937;BME280;14495;48.116;11.676;2022-07-29T11:27:30;95479.13;;;33.60;38.81
26937;BME280;14495;48.116;11.676;2022-07-29T11:29:58;95480.66;;;34.96;37.92
26937;BME280;14495;48.116;11.676;2022-07-29T11:32:39;95478.38;;;33.76;36.64
26937;BME280;14495;48.116;11.676;2022-07-29T11:37:37;95471.91;;;33.48;36.47
26937;BME280;14495;48.116;11.676;2022-07-29T11:45:11;95466.94;;;31.70;40.33
26937;BME280;14495;48.116;11.676;2022-07-29T11:47:59;95460.38;;;31.89;39.65
26937;BME280;14495;48.116;11.676;2022-07-29T11:50:32;95447.56;;;31.31;40.25
26937;BME280;14495;48.116;11.676;2022-07-29T11:52:59;95452.50;;;30.85;41.37
26937;BME280;14495;48.116;11.676;2022-07-29T11:55:25;95450.16;;;30.15;41.19
26937;BME280;14495;48.116;11.676;2022-07-29T11:57:54;95452.03;;;31.91;39.93
26937;BME280;14495;48.116;11.676;2022-07-29T12:00:31;95443.59;;;32.11;39.74
26937;BME280;14495;48.116;11.676;2022-07-29T12:03:02;95433.16;;;32.90;37.58
26937;BME280;14495;48.116;11.676;2022-07-29T12:05:43;95440.56;;;34.37;36.18
26937;BME280;14495;48.116;11.676;2022-07-29T12:08:17;95434.94;;;35.32;35.20
26937;BME280;14495;48.116;11.676;2022-07-29T12:10:45;95438.94;;;33.85;35.97
26937;BME280;14495;48.116;11.676;2022-07-29T12:13:12;95435.97;;;34.60;35.30
26937;BME280;14495;48.116;11.676;2022-07-29T12:15:38;95438.28;;;33.95;36.25
26937;BME280;14495;48.116;11.676;2022-07-29T12:18:29;95428.41;;;34.84;35.18
26937;BME280;14495;48.116;11.676;2022-07-29T12:21:01;95432.31;;;32.90;36.22
26937;BME280;14495;48.116;11.676;2022-07-29T12:23:32;95436.63;;;31.26;38.12
26937;BME280;14495;48.116;11.676;2022-07-29T12:25:58;95426.53;;;31.33;38.39
26937;BME280;14495;48.116;11.676;2022-07-29T12:28:24;95421.63;;;30.99;38.56
26937;BME280;14495;48.116;11.676;2022-07-29T12:30:50;95419.38;;;30.78;38.99
26937;BME280;14495;48.116;11.676;2022-07-29T12:33:26;95424.47;;;30.86;39.35
26937;BME280;14495;48.116;11.676;2022-07-29T12:36:02;95420.66;;;31.66;40.04
26937;BME280;14495;48.116;11.676;2022-07-29T12:38:28;95420.19;;;31.81;39.05
26937;BME280;14495;48.116;11.676;2022-07-29T12:40:54;95424.06;;;31.19;40.83
26937;BME280;14495;48.116;11.676;2022-07-29T12:43:22;95415.72;;;30.91;41.69
26937;BME280;14495;48.116;11.676;2022-07-29T12:45:49;95421.22;;;30.47;41.55
26937;BME280;14495;48.116;11.676;2022-07-29T12:48:15;95413.34;;;30.27;42.27
26937;BME280;14495;48.116;11.676;2022-07-29T12:50:58;95408.28;;;30.56;40.83
26937;BME280;14495;48.116;11.676;2022-07-29T12:53:25;95412.31;;;32.39;38.74
26937;BME280;14495;48.116;11.676;2022-07-29T12:55:53;95408.03;;;33.53;37.66
26937;BME280;14495;48.116;11.676;2022-07-29T12:58:41;95414.09;;;34.27;34.81
26937;BME280;14495;48.116;11.676;2022-07-29T13:01:08;95415.16;;;33.70;36.83
26937;BME280;14495;48.116;11.676;2022-07-29T13:03:52;95424.75;;;32.51;38.00
26937;BME280;14495;48.116;11.676;2022-07-29T13:06:28;95420.31;;;31.74;40.00
26937;BME280;14495;48.116;11.676;2022-07-29T13:09:06;95419.34;;;30.66;40.33
26937;BME280;14495;48.116;11.676;2022-07-29T13:11:40;95425.28;;;30.56;41.42
26937;BME280;14495;48.116;11.676;2022-07-29T13:14:07;95413.50;;;30.32;41.95
26937;BME280;14495;48.116;11.676;2022-07-29T13:16:33;95420.75;;;29.06;42.77
26937;BME280;14495;48.116;11.676;2022-07-29T13:19:10;95408.50;;;28.71;44.23
26937;BME280;14495;48.116;11.676;2022-07-29T13:21:37;95410.25;;;28.52;44.18
26937;BME280;14495;48.116;11.676;2022-07-29T13:24:04;95415.56;;;28.66;44.59
26937;BME280;14495;48.116;11.676;2022-07-29T13:26:31;95413.19;;;28.31;44.56